sensor_id;sensor_type;location;lat;lon;timestamp;pressure;altitude;pressure_sealevel;temperature;humidity
31299;BME280;17927;52.350;13.402;2022-11-20T00:00:23;100782.84;;;4.20;57.53
31299;BME280;17927;52.350;13.402;2022-11-20T00:02:49;100779.31;;;4.19;57.39
31299;BME280;17927;52.350;13.402;2022-11-20T00:05:14;100781.22;;;4.17;57.18
31299;BME280;17927;52.350;13.402;2022-11-20T00:07:39;100775.97;;;4.16;57.28
31299;BME280;17927;52.350;13.402;2022-11-20T00:10:05;100775.97;;;4.16;57.26
31299;BME280;17927;52.350;13.402;2022-11-20T00:12:31;100770.63;;;4.16;57.25
31299;BME280;17927;52.350;13.402;2022-11-20T00:14:56;100775.09;;;4.15;57.15
31299;BME280;17927;52.350;13.402;2022-11-20T00:17:21;100769.88;;;4.14;57.25
31299;BME280;17927;52.350;13.402;2022-11-20T00:19:46;100768.03;;;4.14;57.34
31299;BME280;17927;52.350;13.402;2022-11-20T00:22:11;100771.66;;;4.13;57.45
31299;BME280;17927;52.350;13.402;2022-11-20T00:24:37;100763.88;;;4.10;57.29
31299;BME280;17927;52.350;13.402;2022-11-20T00:27:02;100767.41;;;4.10;57.23
31299;BME280;17927;52.350;13.402;2022-11-20T00:29:27;100769.22;;;4.10;57.13
31299;BME280;17927;52.350;13.402;2022-11-20T00:31:52;100771.91;;;4.10;57.16
31299;BME280;17927;52.350;13.402;2022-11-20T00:34:18;100768.47;;;4.08;56.92
31299;BME280;17927;52.350;13.402;2022-11-20T00:36:43;100770.38;;;4.06;57.11
31299;BME280;17927;52.350;13.402;2022-11-20T00:39:08;100761.59;;;4.04;57.16
31299;BME280;17927;52.350;13.402;2022-11-20T00:41:33;100771.53;;;4.02;57.03
31299;BME280;17927;52.350;13.402;2022-11-20T00:43:59;100778.69;;;4.01;57.09
31299;BME280;17927;52.350;13.402;2022-11-20T00:46:26;100768.97;;;4.00;57.04
31299;BME280;17927;52.350;13.402;2022-11-20T00:48:52;100777.06;;;3.99;57.04
31299;BME280;17927;52.350;13.402;2022-11-20T00:51:19;100775.34;;;3.97;57.04
31299;BME280;17927;52.350;13.402;2022-11-20T00:53:45;100781.69;;;3.96;57.20
31299;BME280;17927;52.350;13.402;2022-11-20T00:56:13;100783.47;;;3.96;56.96
31299;BME280;17927;52.350;13.402;2022-11-20T00:58:40;100784.63;;;3.92;57.05
31299;BME280;17927;52.350;13.402;2022-11-20T01:01:07;100791.81;;;3.91;57.10
31299;BME280;17927;52.350;13.402;2022-11-20T01:03:34;100786.44;;;3.91;56.97
31299;BME280;17927;52.350;13.402;2022-11-20T01:06:01;100785.56;;;3.91;57.08
31299;BME280;17927;52.350;13.402;2022-11-20T01:08:34;100779.50;;;3.89;56.97
31299;BME280;17927;52.350;13.402;2022-11-20T01:11:02;100781.41;;;3.87;57.00
31299;BME280;17927;52.350;13.402;2022-11-20T01:13:28;100776.16;;;3.85;57.02
31299;BME280;17927;52.350;13.402;2022-11-20T01:16:14;100778.06;;;3.83;56.81
31299;BME280;17927;52.350;13.402;2022-11-20T01:18:42;100771.09;;;3.80;56.95
31299;BME280;17927;52.350;13.402;2022-11-20T01:21:10;100773.00;;;3.78;57.02
31299;BME280;17927;52.350;13.402;2022-11-20T01:23:39;100776.75;;;3.76;56.96
31299;BME280;17927;52.350;13.402;2022-11-20T01:26:07;100774.16;;;3.74;56.90
31299;BME280;17927;52.350;13.402;2022-11-20T01:28:33;100768.81;;;3.74;56.86
31299;BME280;17927;52.350;13.402;2022-11-20T01:30:58;100768.94;;;3.73;56.86
31299;BME280;17927;52.350;13.402;2022-11-20T01:33:24;100775.22;;;3.72;56.85
31299;BME280;17927;52.350;13.402;2022-11-20T01:35:50;100761.22;;;3.68;56.77
31299;BME280;17927;52.350;13.402;2022-11-20T01:38:16;100775.41;;;3.69;56.88
31299;BME280;17927;52.350;13.402;2022-11-20T01:40:41;100771.03;;;3.68;56.82
31299;BME280;17927;52.350;13.402;2022-11-20T01:43:17;100774.66;;;3.66;56.85
31299;BME280;17927;52.350;13.402;2022-11-20T01:49:00;100766.28;;;3.58;56.79
31299;BME280;17927;52.350;13.402;2022-11-20T01:51:32;100764.66;;;3.56;56.87
31299;BME280;17927;52.350;13.402;2022-11-20T01:54:02;100774.41;;;3.57;56.80
31299;BME280;17927;52.350;13.402;2022-11-20T01:56:31;100759.41;;;3.54;56.93
31299;BME280;17927;52.350;13.402;2022-11-20T01:59:02;100766.47;;;3.55;56.80
31299;BME280;17927;52.350;13.402;2022-11-20T02:01:29;100762.00;;;3.56;56.81
31299;BME280;17927;52.350;13.402;2022-11-20T02:03:54;100765.44;;;3.58;56.87
31299;BME280;17927;52.350;13.402;2022-11-20T02:06:29;100758.16;;;3.60;56.83
31299;BME280;17927;52.350;13.402;2022-11-20T02:08:56;100755.69;;;3.57;56.76
31299;BME280;17927;52.350;13.402;2022-11-20T02:11:22;100754.81;;;3.56;56.65
31299;BME280;17927;52.350;13.402;2022-11-20T02:13:47;100752.28;;;3.55;56.70
31299;BME280;17927;52.350;13.402;2022-11-20T02:16:23;100757.81;;;3.52;56.73
31299;BME280;17927;52.350;13.402;2022-11-20T02:18:50;100757.97;;;3.48;56.38
31299;BME280;17927;52.350;13.402;2022-11-20T02:21:25;100750.16;;;3.45;56.64
31299;BME280;17927;52.350;13.402;2022-11-20T02:26:22;100745.13;;;3.41;56.63
31299;BME280;17927;52.350;13.402;2022-11-20T02:28:49;100747.03;;;3.39;56.59
31299;BME280;17927;52.350;13.402;2022-11-20T02:31:14;100746.25;;;3.37;56.62
31299;BME280;17927;52.350;13.402;2022-11-20T02:33:40;100741.97;;;3.34;56.74
31299;BME280;17927;52.350;13.402;2022-11-20T02:36:06;100743.88;;;3.32;56.63
31299;BME280;17927;52.350;13.402;2022-11-20T02:38:33;100736.81;;;3.31;56.58
31299;BME280;17927;52.350;13.402;2022-11-20T02:40:58;100742.28;;;3.29;56.57
31299;BME280;17927;52.350;13.402;2022-11-20T02:43:23;100745.91;;;3.28;56.57
31299;BME280;17927;52.350;13.402;2022-11-20T02:45:49;100738.06;;;3.25;56.49
31299;BME280;17927;52.350;13.402;2022-11-20T02:48:14;100738.06;;;3.25;56.67
31299;BME280;17927;52.350;13.402;2022-11-20T02:50:40;100730.25;;;3.22;56.62
31299;BME280;17927;52.350;13.402;2022-11-20T02:53:05;100733.03;;;3.20;56.61
31299;BME280;17927;52.350;13.402;2022-11-20T02:55:31;100731.41;;;3.18;56.68
31299;BME280;17927;52.350;13.402;2022-11-20T02:57:56;100736.94;;;3.15;56.74
31299;BME280;17927;52.350;13.402;2022-11-20T03:00:21;100721.88;;;3.14;56.72
31299;BME280;17927;52.350;13.402;2022-11-20T03:02:46;100731.78;;;3.12;56.76
31299;BME280;17927;52.350;13.402;2022-11-20T03:05:12;100733.59;;;3.11;56.88
31299;BME280;17927;52.350;13.402;2022-11-20T03:07:37;100728.28;;;3.11;57.10
31299;BME280;17927;52.350;13.402;2022-11-20T03:10:03;100731.78;;;3.12;57.04
31299;BME280;17927;52.350;13.402;2022-11-20T03:12:28;100719.28;;;3.12;57.08
31299;BME280;17927;52.350;13.402;2022-11-20T03:14:54;100718.31;;;3.13;57.06
31299;BME280;17927;52.350;13.402;2022-11-20T03:17:19;100711.97;;;3.16;57.11
31299;BME280;17927;52.350;13.402;2022-11-20T03:19:44;100710.91;;;3.18;57.21
31299;BME280;17927;52.350;13.402;2022-11-20T03:22:10;100709.00;;;3.20;57.05
31299;BME280;17927;52.350;13.402;2022-11-20T03:24:35;100706.31;;;3.20;56.91
31299;BME280;17927;52.350;13.402;2022-11-20T03:27:00;100707.09;;;3.23;57.08
31299;BME280;17927;52.350;13.402;2022-11-20T03:29:25;100703.53;;;3.22;57.24
31299;BME280;17927;52.350;13.402;2022-11-20T03:31:51;100700.97;;;3.20;57.06
31299;BME280;17927;52.350;13.402;2022-11-20T03:34:16;100709.84;;;3.21;57.00
31299;BME280;17927;52.350;13.402;2022-11-20T03:36:42;100709.00;;;3.20;57.00
31299;BME280;17927;52.350;13.402;2022-11-20T03:39:08;100712.50;;;3.21;56.89
31299;BME280;17927;52.350;13.402;2022-11-20T03:41:39;100706.31;;;3.20;56.93
31299;BME280;17927;52.350;13.402;2022-11-20T03:44:07;100708.13;;;3.20;56.99
31299;BME280;17927;52.350;13.402;2022-11-20T03:46:33;100705.56;;;3.18;56.93
31299;BME280;17927;52.350;13.402;2022-11-20T03:48:59;100701.81;;;3.21;57.38
31299;BME280;17927;52.350;13.402;2022-11-20T03:51:29;100705.25;;;3.23;57.14
31299;BME280;17927;52.350;13.402;2022-11-20T03:53:57;100706.13;;;3.24;57.11
31299;BME280;17927;52.350;13.402;2022-11-20T03:56:25;100709.66;;;3.24;57.24
31299;BME280;17927;52.350;13.402;2022-11-20T03:58:51;100705.19;;;3.25;57.15
31299;BME280;17927;52.350;13.402;2022-11-20T04:01:19;100706.69;;;3.29;57.17
31299;BME280;17927;52.350;13.402;2022-11-20T04:03:45;100709.16;;;3.32;57.15
31299;BME280;17927;52.350;13.402;2022-11-20T04:06:16;100707.91;;;3.38;57.21
31299;BME280;17927;52.350;13.402;2022-11-20T04:08:42;100699.44;;;3.31;57.31
31299;BME280;17927;52.350;13.402;2022-11-20T04:11:17;100703.81;;;3.32;57.20
31299;BME280;17927;52.350;13.402;2022-11-20T04:13:47;100703.53;;;3.37;57.17
31299;BME280;17927;52.350;13.402;2022-11-20T04:16:13;100696.19;;;3.40;57.24
31299;BME280;17927;52.350;13.402;2022-11-20T04:18:38;100704.75;;;3.45;57.10
31299;BME280;17927;52.350;13.402;2022-11-20T04:21:04;100700.94;;;3.49;57.17
31299;BME280;17927;52.350;13.402;2022-11-20T04:23:30;100700.00;;;3.50;56.83
31299;BME280;17927;52.350;13.402;2022-11-20T04:26:00;100700.84;;;3.51;56.97
31299;BME280;17927;52.350;13.402;2022-11-20T04:28:27;100700.00;;;3.50;56.75
31299;BME280;17927;52.350;13.402;2022-11-20T04:30:52;100693.81;;;3.50;56.89
31299;BME280;17927;52.350;13.402;2022-11-20T04:33:17;100701.72;;;3.52;56.90
31299;BME280;17927;52.350;13.402;2022-11-20T04:35:43;100697.00;;;3.55;56.96
31299;BME280;17927;52.350;13.402;2022-11-20T04:38:12;100693.50;;;3.55;57.10
31299;BME280;17927;52.350;13.402;2022-11-20T04:40:37;100698.72;;;3.56;57.04
31299;BME280;17927;52.350;13.402;2022-11-20T04:43:02;100693.38;;;3.56;57.12
31299;BME280;17927;52.350;13.402;2022-11-20T04:45:28;100691.47;;;3.58;57.13
31299;BME280;17927;52.350;13.402;2022-11-20T04:47:53;100693.19;;;3.59;56.98
31299;BME280;17927;52.350;13.402;2022-11-20T04:50:18;100689.66;;;3.59;57.17
31299;BME280;17927;52.350;13.402;2022-11-20T04:52:43;100684.22;;;3.60;57.19
31299;BME280;17927;52.350;13.402;2022-11-20T04:55:09;100685.94;;;3.61;57.24
31299;BME280;17927;52.350;13.402;2022-11-20T04:57:34;100681.38;;;3.63;57.53
31299;BME280;17927;52.350;13.402;2022-11-20T04:59:59;100681.38;;;3.63;57.15
31299;BME280;17927;52.350;13.402;2022-11-20T05:02:25;100676.66;;;3.67;57.23
31299;BME280;17927;52.350;13.402;2022-11-20T05:04:50;100676.66;;;3.67;57.20
31299;BME280;17927;52.350;13.402;2022-11-20T05:07:15;100675.59;;;3.70;57.25
31299;BME280;17927;52.350;13.402;2022-11-20T05:09:40;100672.94;;;3.70;57.36
31299;BME280;17927;52.350;13.402;2022-11-20T05:12:07;100666.53;;;3.72;57.30
31299;BME280;17927;52.350;13.402;2022-11-20T05:14:33;100668.16;;;3.75;57.40
31299;BME280;17927;52.350;13.402;2022-11-20T05:16:58;100670.63;;;3.78;57.39
31299;BME280;17927;52.350;13.402;2022-11-20T05:19:23;100669.66;;;3.79;57.34
31299;BME280;17927;52.350;13.402;2022-11-20T05:21:49;100662.50;;;3.79;57.26
31299;BME280;17927;52.350;13.402;2022-11-20T05:24:14;100667.00;;;3.79;57.13
31299;BME280;17927;52.350;13.402;2022-11-20T05:26:39;100662.59;;;3.78;57.24
31299;BME280;17927;52.350;13.402;2022-11-20T05:29:04;100666.13;;;3.78;57.34
31299;BME280;17927;52.350;13.402;2022-11-20T05:31:30;100675.84;;;3.79;57.36
31299;BME280;17927;52.350;13.402;2022-11-20T05:33:56;100666.03;;;3.80;57.43
31299;BME280;17927;52.350;13.402;2022-11-20T05:36:21;100664.22;;;3.80;57.44
31299;BME280;17927;52.350;13.402;2022-11-20T05:38:47;100669.44;;;3.82;57.46
31299;BME280;17927;52.350;13.402;2022-11-20T05:41:14;100669.44;;;3.82;57.57
31299;BME280;17927;52.350;13.402;2022-11-20T05:43:42;100663.25;;;3.81;57.25
31299;BME280;17927;52.350;13.402;2022-11-20T05:46:10;100663.25;;;3.81;57.20
31299;BME280;17927;52.350;13.402;2022-11-20T05:48:36;100658.75;;;3.82;57.45
31299;BME280;17927;52.350;13.402;2022-11-20T05:51:04;100658.75;;;3.82;57.40
31299;BME280;17927;52.350;13.402;2022-11-20T05:53:32;100659.63;;;3.83;57.37
31299;BME280;17927;52.350;13.402;2022-11-20T05:55:59;100665.81;;;3.83;57.32
31299;BME280;17927;52.350;13.402;2022-11-20T05:58:25;100656.94;;;3.83;57.35
31299;BME280;17927;52.350;13.402;2022-11-20T06:00:50;100656.00;;;3.84;57.33
31299;BME280;17927;52.350;13.402;2022-11-20T06:03:16;100657.78;;;3.83;57.40
31299;BME280;17927;52.350;13.402;2022-11-20T06:05:41;100661.34;;;3.84;57.41
31299;BME280;17927;52.350;13.402;2022-11-20T06:08:06;100663.13;;;3.83;57.40
31299;BME280;17927;52.350;13.402;2022-11-20T06:10:31;100660.47;;;3.83;57.53
31299;BME280;17927;52.350;13.402;2022-11-20T06:12:57;100657.78;;;3.83;57.32
31299;BME280;17927;52.350;13.402;2022-11-20T06:15:23;100646.38;;;3.81;57.64
31299;BME280;17927;52.350;13.402;2022-11-20T06:17:52;100649.06;;;3.81;57.42
31299;BME280;17927;52.350;13.402;2022-11-20T06:20:17;100656.06;;;3.82;57.38
31299;BME280;17927;52.350;13.402;2022-11-20T06:22:42;100650.84;;;3.80;57.32
31299;BME280;17927;52.350;13.402;2022-11-20T06:25:08;100652.56;;;3.81;57.32
31299;BME280;17927;52.350;13.402;2022-11-20T06:27:33;100655.34;;;3.80;57.27
31299;BME280;17927;52.350;13.402;2022-11-20T06:29:58;100663.38;;;3.80;57.34
31299;BME280;17927;52.350;13.402;2022-11-20T06:32:23;100663.38;;;3.80;57.13
31299;BME280;17927;52.350;13.402;2022-11-20T06:34:49;100659.94;;;3.78;57.02
31299;BME280;17927;52.350;13.402;2022-11-20T06:37:14;100658.41;;;3.74;57.10
31299;BME280;17927;52.350;13.402;2022-11-20T06:39:39;100648.78;;;3.71;57.15
31299;BME280;17927;52.350;13.402;2022-11-20T06:42:04;100649.84;;;3.69;57.16
31299;BME280;17927;52.350;13.402;2022-11-20T06:44:30;100656.13;;;3.68;57.34
31299;BME280;17927;52.350;13.402;2022-11-20T06:46:55;100657.97;;;3.67;57.24
31299;BME280;17927;52.350;13.402;2022-11-20T06:49:20;100657.84;;;3.69;57.22
31299;BME280;17927;52.350;13.402;2022-11-20T06:51:45;100649.84;;;3.69;57.00
31299;BME280;17927;52.350;13.402;2022-11-20T06:54:11;100653.47;;;3.68;56.87
31299;BME280;17927;52.350;13.402;2022-11-20T06:56:36;100651.03;;;3.64;56.87
31299;BME280;17927;52.350;13.402;2022-11-20T06:59:04;100651.03;;;3.64;56.87
31299;BME280;17927;52.350;13.402;2022-11-20T07:01:30;100657.97;;;3.67;56.95
31299;BME280;17927;52.350;13.402;2022-11-20T07:03:55;100659.56;;;3.70;56.80
31299;BME280;17927;52.350;13.402;2022-11-20T07:06:21;100665.59;;;3.73;56.63
31299;BME280;17927;52.350;13.402;2022-11-20T07:08:46;100658.22;;;3.77;56.61
31299;BME280;17927;52.350;13.402;2022-11-20T07:11:12;100657.16;;;3.79;56.49
31299;BME280;17927;52.350;13.402;2022-11-20T07:13:37;100663.38;;;3.80;56.41
31299;BME280;17927;52.350;13.402;2022-11-20T07:16:05;100657.16;;;3.79;56.05
31299;BME280;17927;52.350;13.402;2022-11-20T07:18:32;100657.16;;;3.79;56.10
31299;BME280;17927;52.350;13.402;2022-11-20T07:21:02;100656.31;;;3.79;56.17
31299;BME280;17927;52.350;13.402;2022-11-20T07:23:27;100665.28;;;3.78;56.20
31299;BME280;17927;52.350;13.402;2022-11-20T07:25:53;100655.44;;;3.78;56.13
31299;BME280;17927;52.350;13.402;2022-11-20T07:28:18;100658.09;;;3.78;56.21
31299;BME280;17927;52.350;13.402;2022-11-20T07:30:49;100636.72;;;3.78;56.17
31299;BME280;17927;52.350;13.402;2022-11-20T07:33:15;100633.97;;;3.80;56.30
31299;BME280;17927;52.350;13.402;2022-11-20T07:35:40;100638.38;;;3.81;56.38
31299;BME280;17927;52.350;13.402;2022-11-20T07:38:05;100632.03;;;3.82;56.19
31299;BME280;17927;52.350;13.402;2022-11-20T07:40:30;100644.53;;;3.81;56.16
31299;BME280;17927;52.350;13.402;2022-11-20T07:42:56;100645.38;;;3.82;56.12
31299;BME280;17927;52.350;13.402;2022-11-20T07:45:22;100642.00;;;3.80;56.11
31299;BME280;17927;52.350;13.402;2022-11-20T07:47:48;100637.59;;;3.79;56.21
31299;BME280;17927;52.350;13.402;2022-11-20T07:50:14;100633.97;;;3.80;56.07
31299;BME280;17927;52.350;13.402;2022-11-20T07:52:39;100637.38;;;3.82;56.14
31299;BME280;17927;52.350;13.402;2022-11-20T07:55:06;100643.47;;;3.84;56.16
31299;BME280;17927;52.350;13.402;2022-11-20T07:57:31;100641.56;;;3.86;56.17
31299;BME280;17927;52.350;13.402;2022-11-20T07:59:56;100630.88;;;3.86;56.09
31299;BME280;17927;52.350;13.402;2022-11-20T08:02:22;100637.09;;;3.87;56.09
31299;BME280;17927;52.350;13.402;2022-11-20T08:04:47;100631.75;;;3.87;56.10
31299;BME280;17927;52.350;13.402;2022-11-20T08:07:12;100633.53;;;3.86;56.21
31299;BME280;17927;52.350;13.402;2022-11-20T08:09:38;100632.69;;;3.86;55.84
31299;BME280;17927;52.350;13.402;2022-11-20T08:12:03;100638.88;;;3.86;56.04
31299;BME280;17927;52.350;13.402;2022-11-20T08:14:47;100631.81;;;3.85;56.23
31299;BME280;17927;52.350;13.402;2022-11-20T08:17:12;100627.44;;;3.84;56.04
31299;BME280;17927;52.350;13.402;2022-11-20T08:19:37;100630.88;;;3.86;56.08
31299;BME280;17927;52.350;13.402;2022-11-20T08:22:03;100619.34;;;3.86;55.92
31299;BME280;17927;52.350;13.402;2022-11-20T08:24:28;100618.47;;;3.85;55.87
31299;BME280;17927;52.350;13.402;2022-11-20T08:26:53;100625.72;;;3.83;56.12
31299;BME280;17927;52.350;13.402;2022-11-20T08:29:18;100627.44;;;3.84;56.16
31299;BME280;17927;52.350;13.402;2022-11-20T08:31:44;100622.97;;;3.85;56.10
31299;BME280;17927;52.350;13.402;2022-11-20T08:34:09;100620.09;;;3.88;56.09
31299;BME280;17927;52.350;13.402;2022-11-20T08:36:34;100622.66;;;3.89;55.93
31299;BME280;17927;52.350;13.402;2022-11-20T08:39:00;100623.50;;;3.90;55.91
31299;BME280;17927;52.350;13.402;2022-11-20T08:41:25;100616.34;;;3.90;56.01
31299;BME280;17927;52.350;13.402;2022-11-20T08:44:03;100624.25;;;3.92;55.79
31299;BME280;17927;52.350;13.402;2022-11-20T08:46:35;100610.06;;;3.91;55.69
31299;BME280;17927;52.350;13.402;2022-11-20T08:49:05;100611.00;;;3.90;55.72
31299;BME280;17927;52.350;13.402;2022-11-20T08:51:31;100615.41;;;3.91;55.94
31299;BME280;17927;52.350;13.402;2022-11-20T08:53:56;100609.19;;;3.91;55.90
31299;BME280;17927;52.350;13.402;2022-11-20T08:56:22;100606.63;;;3.89;56.02
31299;BME280;17927;52.350;13.402;2022-11-20T08:58:47;100620.75;;;3.91;55.95
31299;BME280;17927;52.350;13.402;2022-11-20T09:01:12;100610.91;;;3.92;55.93
31299;BME280;17927;52.350;13.402;2022-11-20T09:03:37;100615.19;;;3.94;55.85
31299;BME280;17927;52.350;13.402;2022-11-20T09:06:05;100615.19;;;3.94;55.62
31299;BME280;17927;52.350;13.402;2022-11-20T09:08:31;100610.69;;;3.95;55.69
31299;BME280;17927;52.350;13.402;2022-11-20T09:10:58;100624.06;;;3.95;55.69
31299;BME280;17927;52.350;13.402;2022-11-20T09:13:25;100622.25;;;3.95;55.56
31299;BME280;17927;52.350;13.402;2022-11-20T09:15:58;100614.44;;;3.92;55.40
31299;BME280;17927;52.350;13.402;2022-11-20T09:18:24;100616.34;;;3.90;55.55
31299;BME280;17927;52.350;13.402;2022-11-20T09:20:50;100610.06;;;3.91;55.39
31299;BME280;17927;52.350;13.402;2022-11-20T09:23:15;100613.69;;;3.90;55.34
31299;BME280;17927;52.350;13.402;2022-11-20T09:25:41;100620.75;;;3.91;55.18
31299;BME280;17927;52.350;13.402;2022-11-20T09:28:07;100623.50;;;3.90;55.50
31299;BME280;17927;52.350;13.402;2022-11-20T09:30:32;100629.72;;;3.90;55.25
31299;BME280;17927;52.350;13.402;2022-11-20T09:32:57;100626.09;;;3.91;55.32
31299;BME280;17927;52.350;13.402;2022-11-20T09:35:23;100634.00;;;3.93;55.09
31299;BME280;17927;52.350;13.402;2022-11-20T09:37:48;100632.19;;;3.93;55.21
31299;BME280;17927;52.350;13.402;2022-11-20T09:40:20;100628.44;;;3.96;54.96
31299;BME280;17927;52.350;13.402;2022-11-20T09:43:27;100632.00;;;3.96;54.85
31299;BME280;17927;52.350;13.402;2022-11-20T09:46:11;100620.63;;;3.93;54.92
31299;BME280;17927;52.350;13.402;2022-11-20T09:48:48;100619.66;;;3.94;54.92
31299;BME280;17927;52.350;13.402;2022-11-20T09:54:16;100613.56;;;3.92;55.17
31299;BME280;17927;52.350;13.402;2022-11-20T09:56:56;100615.41;;;3.91;55.11
31299;BME280;17927;52.350;13.402;2022-11-20T10:02:00;100612.53;;;3.94;55.17
31299;BME280;17927;52.350;13.402;2022-11-20T10:04:29;100612.28;;;3.97;55.41
31299;BME280;17927;52.350;13.402;2022-11-20T10:07:07;100602.28;;;4.01;54.98
31299;BME280;17927;52.350;13.402;2022-11-20T10:09:39;100599.47;;;4.03;55.19
31299;BME280;17927;52.350;13.402;2022-11-20T10:12:15;100593.06;;;4.05;55.03
31299;BME280;17927;52.350;13.402;2022-11-20T10:14:59;100591.06;;;4.09;55.04
31299;BME280;17927;52.350;13.402;2022-11-20T10:17:46;100589.13;;;4.11;55.17
31299;BME280;17927;52.350;13.402;2022-11-20T10:20:20;100588.91;;;4.14;55.01
31299;BME280;17927;52.350;13.402;2022-11-20T10:22:56;100593.09;;;4.18;55.20
31299;BME280;17927;52.350;13.402;2022-11-20T10:25:37;100595.44;;;4.23;55.17
31299;BME280;17927;52.350;13.402;2022-11-20T10:28:11;100599.63;;;4.27;55.14
31299;BME280;17927;52.350;13.402;2022-11-20T10:30:41;100585.09;;;4.31;55.12
31299;BME280;17927;52.350;13.402;2022-11-20T10:33:22;100595.66;;;4.33;55.26
31299;BME280;17927;52.350;13.402;2022-11-20T10:36:21;100582.19;;;4.34;54.89
31299;BME280;17927;52.350;13.402;2022-11-20T10:38:56;100591.19;;;4.33;55.34
31299;BME280;17927;52.350;13.402;2022-11-20T10:41:27;100591.94;;;4.35;55.22
31299;BME280;17927;52.350;13.402;2022-11-20T10:44:16;100581.75;;;4.40;55.52
31299;BME280;17927;52.350;13.402;2022-11-20T10:47:03;100586.06;;;4.43;55.53
31299;BME280;17927;52.350;13.402;2022-11-20T10:49:30;100580.47;;;4.46;55.27
31299;BME280;17927;52.350;13.402;2022-11-20T10:52:09;100580.16;;;4.51;55.21
31299;BME280;17927;52.350;13.402;2022-11-20T10:54:53;100576.28;;;4.55;55.35
31299;BME280;17927;52.350;13.402;2022-11-20T10:57:35;100583.97;;;4.60;55.44
31299;BME280;17927;52.350;13.402;2022-11-20T11:00:09;100574.78;;;4.64;55.50
31299;BME280;17927;52.350;13.402;2022-11-20T11:02:43;100571.06;;;4.66;55.38
31299;BME280;17927;52.350;13.402;2022-11-20T11:07:46;100560.00;;;4.71;55.29
31299;BME280;17927;52.350;13.402;2022-11-20T11:10:16;100570.50;;;4.74;55.16
31299;BME280;17927;52.350;13.402;2022-11-20T11:12:46;100562.47;;;4.74;55.12
31299;BME280;17927;52.350;13.402;2022-11-20T11:15:46;100562.47;;;4.74;55.00
31299;BME280;17927;52.350;13.402;2022-11-20T11:18:11;100566.13;;;4.73;55.20
31299;BME280;17927;52.350;13.402;2022-11-20T11:20:37;100567.50;;;4.79;55.20
31299;BME280;17927;52.350;13.402;2022-11-20T11:23:03;100555.69;;;4.81;54.97
31299;BME280;17927;52.350;13.402;2022-11-20T11:25:34;100550.97;;;4.85;55.03
31299;BME280;17927;52.350;13.402;2022-11-20T11:28:19;100552.69;;;4.86;55.17
31299;BME280;17927;52.350;13.402;2022-11-20T11:30:45;100549.91;;;4.87;54.95
31299;BME280;17927;52.350;13.402;2022-11-20T11:33:18;100543.47;;;4.90;54.92
31299;BME280;17927;52.350;13.402;2022-11-20T11:36:47;100541.41;;;4.94;54.84
31299;BME280;17927;52.350;13.402;2022-11-20T11:39:02;100540.47;;;4.95;55.21
31299;BME280;17927;52.350;13.402;2022-11-20T11:41:31;100533.69;;;5.02;55.15
31299;BME280;17927;52.350;13.402;2022-11-20T11:44:30;100536.56;;;5.12;55.42
31299;BME280;17927;52.350;13.402;2022-11-20T11:47:25;100528.06;;;5.18;55.34
31299;BME280;17927;52.350;13.402;2022-11-20T11:50:14;100528.22;;;5.28;55.33
31299;BME280;17927;52.350;13.402;2022-11-20T11:53:09;100533.16;;;5.34;55.26
31299;BME280;17927;52.350;13.402;2022-11-20T11:56:03;100529.16;;;5.40;55.50
31299;BME280;17927;52.350;13.402;2022-11-20T11:58:45;100530.50;;;5.45;55.55
31299;BME280;17927;52.350;13.402;2022-11-20T12:01:43;100527.38;;;5.52;55.36
31299;BME280;17927;52.350;13.402;2022-11-20T12:04:23;100537.00;;;5.54;55.00
31299;BME280;17927;52.350;13.402;2022-11-20T12:07:01;100527.88;;;5.57;55.25
31299;BME280;17927;52.350;13.402;2022-11-20T12:09:36;100521.44;;;5.59;55.08
31299;BME280;17927;52.350;13.402;2022-11-20T12:12:06;100519.47;;;5.61;54.96
31299;BME280;17927;52.350;13.402;2022-11-20T12:14:40;100517.53;;;5.63;54.81
31299;BME280;17927;52.350;13.402;2022-11-20T12:17:10;100518.41;;;5.64;54.57
31299;BME280;17927;52.350;13.402;2022-11-20T12:19:36;100514.53;;;5.68;54.63
31299;BME280;17927;52.350;13.402;2022-11-20T12:22:22;100514.41;;;5.70;54.44
31299;BME280;17927;52.350;13.402;2022-11-20T12:25:02;100518.88;;;5.69;54.47
31299;BME280;17927;52.350;13.402;2022-11-20T12:27:36;100513.53;;;5.69;54.72
31299;BME280;17927;52.350;13.402;2022-11-20T12:35:38;100501.00;;;5.70;54.62
31299;BME280;17927;52.350;13.402;2022-11-20T12:41:06;100512.81;;;5.67;55.02
31299;BME280;17927;52.350;13.402;2022-11-20T12:43:58;100508.16;;;5.69;55.20
31299;BME280;17927;52.350;13.402;2022-11-20T12:46:48;100509.28;;;5.67;55.27
31299;BME280;17927;52.350;13.402;2022-11-20T12:49:29;100512.81;;;5.67;55.24
31299;BME280;17927;52.350;13.402;2022-11-20T12:55:25;100503.28;;;5.63;55.51
31299;BME280;17927;52.350;13.402;2022-11-20T13:00:20;100498.03;;;5.61;55.87
31299;BME280;17927;52.350;13.402;2022-11-20T13:05:59;100492.81;;;5.60;55.82
31299;BME280;17927;52.350;13.402;2022-11-20T13:08:37;100486.59;;;5.59;55.88
31299;BME280;17927;52.350;13.402;2022-11-20T13:11:27;100484.91;;;5.58;55.98
31299;BME280;17927;52.350;13.402;2022-11-20T13:14:00;100488.63;;;5.56;56.14
31299;BME280;17927;52.350;13.402;2022-11-20T13:16:36;100485.97;;;5.56;56.17
31299;BME280;17927;52.350;13.402;2022-11-20T13:19:04;100491.22;;;5.57;56.46
31299;BME280;17927;52.350;13.402;2022-11-20T13:21:38;100482.22;;;5.58;56.47
31299;BME280;17927;52.350;13.402;2022-11-20T13:24:05;100483.78;;;5.49;56.57
31299;BME280;17927;52.350;13.402;2022-11-20T13:26:30;100486.22;;;5.53;56.58
31299;BME280;17927;52.350;13.402;2022-11-20T13:29:31;100481.34;;;5.58;56.45
31299;BME280;17927;52.350;13.402;2022-11-20T13:32:13;100481.25;;;5.59;56.69